Brisbane, California
Current Conditions -  °F | °C
As of 2:26 AM on Friday 31 Oct 2014 (Local Time) from KSFO Reporting Station
Broken Clouds Broken Clouds  
Wind Chill: 63°   Ceiling: 3800
Heat Index: 63°   Visibility: 10mi
Dew Point: 55°   Wind: 6mph
Humidity: 77%   Direction: 180°S
Pressure: 29.9"   Gusts: NA
Location:  37.68°N, 122.4°W
Report Text: KSFO 310926Z 18005KT 10SM SCT028 BKN038 17/13 A2990 RMK AO2
Loading
Personal Weather Stations






























Interactive Weather Map
Tropical Storm Tracking
New forecast layout! Learn more

10-Day Weather Forecast

Advertisements
Track Severe Weather on mobile